sensor_id;sensor_type;location;lat;lon;timestamp;pressure;altitude;pressure_sealevel;temperature;humidity
46598;BME280;32318;48.858;8.252;2022-12-07T00:04:45;100481.75;;;4.75;84.74
46598;BME280;32318;48.858;8.252;2022-12-07T00:12:45;100481.16;;;4.71;85.13
46598;BME280;32318;48.858;8.252;2022-12-07T00:20:45;100476.22;;;4.67;85.10
46598;BME280;32318;48.858;8.252;2022-12-07T00:28:47;100470.44;;;4.62;85.04
46598;BME280;32318;48.858;8.252;2022-12-07T00:36:48;100466.59;;;4.54;85.66
46598;BME280;32318;48.858;8.252;2022-12-07T00:44:49;100467.56;;;4.53;86.29
46598;BME280;32318;48.858;8.252;2022-12-07T00:52:49;100465.03;;;4.52;85.68
46598;BME280;32318;48.858;8.252;2022-12-07T01:00:49;100472.09;;;4.51;86.43
46598;BME280;32318;48.858;8.252;2022-12-07T01:08:50;100465.16;;;4.50;86.68
46598;BME280;32318;48.858;8.252;2022-12-07T01:16:50;100469.72;;;4.48;86.40
46598;BME280;32318;48.858;8.252;2022-12-07T01:24:50;100469.22;;;4.43;86.43
46598;BME280;32318;48.858;8.252;2022-12-07T01:32:51;100477.88;;;4.45;86.24
46598;BME280;32318;48.858;8.252;2022-12-07T01:40:55;100477.75;;;4.47;86.85
46598;BME280;32318;48.858;8.252;2022-12-07T01:48:56;100483.91;;;4.47;86.88
46598;BME280;32318;48.858;8.252;2022-12-07T01:56:57;100471.03;;;4.43;86.21
46598;BME280;32318;48.858;8.252;2022-12-07T02:04:59;100484.38;;;4.41;86.76
46598;BME280;32318;48.858;8.252;2022-12-07T02:21:24;100471.63;;;4.35;86.85
46598;BME280;32318;48.858;8.252;2022-12-07T02:29:35;100472.09;;;4.29;86.67
46598;BME280;32318;48.858;8.252;2022-12-07T02:37:43;100467.25;;;4.11;86.67
46598;BME280;32318;48.858;8.252;2022-12-07T02:45:50;100454.25;;;4.08;86.67
46598;BME280;32318;48.858;8.252;2022-12-07T02:53:51;100444.44;;;4.10;87.59
46598;BME280;32318;48.858;8.252;2022-12-07T03:18:39;100458.38;;;4.12;86.58
46598;BME280;32318;48.858;8.252;2022-12-07T03:26:46;100446.84;;;4.13;86.97
46598;BME280;32318;48.858;8.252;2022-12-07T03:34:56;100423.19;;;4.12;86.87
46598;BME280;32318;48.858;8.252;2022-12-07T03:43:00;100442.75;;;4.09;87.15
46598;BME280;32318;48.858;8.252;2022-12-07T03:51:13;100418.25;;;4.07;86.97
46598;BME280;32318;48.858;8.252;2022-12-07T03:59:19;100430.22;;;4.00;87.05
46598;BME280;32318;48.858;8.252;2022-12-07T04:07:20;100437.66;;;3.95;87.52
46598;BME280;32318;48.858;8.252;2022-12-07T04:15:20;100434.78;;;3.86;87.42
46598;BME280;32318;48.858;8.252;2022-12-07T04:23:21;100429.34;;;3.76;87.49
46598;BME280;32318;48.858;8.252;2022-12-07T04:31:21;100422.88;;;3.81;87.74
46598;BME280;32318;48.858;8.252;2022-12-07T04:39:24;100426.13;;;3.84;87.77
46598;BME280;32318;48.858;8.252;2022-12-07T04:47:25;100427.59;;;3.88;87.39
46598;BME280;32318;48.858;8.252;2022-12-07T04:55:25;100422.03;;;3.91;87.74
46598;BME280;32318;48.858;8.252;2022-12-07T05:03:25;100429.38;;;3.88;87.17
46598;BME280;32318;48.858;8.252;2022-12-07T05:11:26;100423.25;;;3.87;87.74
46598;BME280;32318;48.858;8.252;2022-12-07T05:19:38;100422.31;;;3.88;87.71
46598;BME280;32318;48.858;8.252;2022-12-07T05:27:38;100432.13;;;3.86;86.84
46598;BME280;32318;48.858;8.252;2022-12-07T05:35:38;100429.72;;;3.83;87.32
46598;BME280;32318;48.858;8.252;2022-12-07T05:43:38;100426.13;;;3.84;87.01
46598;BME280;32318;48.858;8.252;2022-12-07T05:51:39;100440.66;;;3.90;87.18
46598;BME280;32318;48.858;8.252;2022-12-07T05:59:39;100427.69;;;3.87;86.60
46598;BME280;32318;48.858;8.252;2022-12-07T06:07:40;100424.69;;;3.80;86.55
46598;BME280;32318;48.858;8.252;2022-12-07T06:15:40;100432.25;;;3.85;86.94
46598;BME280;32318;48.858;8.252;2022-12-07T06:23:40;100435.94;;;3.82;85.78
46598;BME280;32318;48.858;8.252;2022-12-07T06:31:41;100432.44;;;3.70;86.02
46598;BME280;32318;48.858;8.252;2022-12-07T06:39:41;100442.63;;;3.64;86.10
46598;BME280;32318;48.858;8.252;2022-12-07T06:47:41;100437.22;;;3.65;86.08
46598;BME280;32318;48.858;8.252;2022-12-07T06:55:42;100445.28;;;3.64;85.80
46598;BME280;32318;48.858;8.252;2022-12-07T07:03:43;100439.00;;;3.65;85.85
46598;BME280;32318;48.858;8.252;2022-12-07T07:11:44;100442.13;;;3.58;85.91
46598;BME280;32318;48.858;8.252;2022-12-07T07:19:44;100440.00;;;3.64;85.82
46598;BME280;32318;48.858;8.252;2022-12-07T07:27:44;100448.63;;;3.66;85.71
46598;BME280;32318;48.858;8.252;2022-12-07T07:35:45;100449.81;;;3.61;85.17
46598;BME280;32318;48.858;8.252;2022-12-07T07:43:45;100451.50;;;3.63;84.55
46598;BME280;32318;48.858;8.252;2022-12-07T07:51:45;100458.47;;;3.64;84.56
46598;BME280;32318;48.858;8.252;2022-12-07T07:59:46;100462.44;;;3.69;84.23
46598;BME280;32318;48.858;8.252;2022-12-07T08:07:46;100464.72;;;3.74;83.23
46598;BME280;32318;48.858;8.252;2022-12-07T08:15:47;100467.28;;;3.75;82.87
46598;BME280;32318;48.858;8.252;2022-12-07T08:23:48;100472.44;;;3.77;82.85
46598;BME280;32318;48.858;8.252;2022-12-07T08:31:48;100473.25;;;3.66;80.21
46598;BME280;32318;48.858;8.252;2022-12-07T08:39:48;100476.97;;;3.75;81.90
46598;BME280;32318;48.858;8.252;2022-12-07T08:48:05;100482.25;;;3.75;82.03
46598;BME280;32318;48.858;8.252;2022-12-07T08:56:06;100488.41;;;3.75;81.37
46598;BME280;32318;48.858;8.252;2022-12-07T09:04:07;100483.94;;;3.76;81.94
46598;BME280;32318;48.858;8.252;2022-12-07T09:12:07;100472.44;;;3.77;81.36
46598;BME280;32318;48.858;8.252;2022-12-07T09:20:08;100479.88;;;3.83;81.54
46598;BME280;32318;48.858;8.252;2022-12-07T09:28:09;100481.84;;;3.92;81.51
46598;BME280;32318;48.858;8.252;2022-12-07T09:36:09;100481.75;;;3.94;80.57
46598;BME280;32318;48.858;8.252;2022-12-07T09:44:13;100484.84;;;3.88;80.38
46598;BME280;32318;48.858;8.252;2022-12-07T09:52:26;100476.34;;;3.96;81.42
46598;BME280;32318;48.858;8.252;2022-12-07T10:00:27;100471.53;;;4.01;81.05
46598;BME280;32318;48.858;8.252;2022-12-07T10:08:28;100470.38;;;4.05;81.13
46598;BME280;32318;48.858;8.252;2022-12-07T10:16:40;100461.00;;;4.12;81.30
46598;BME280;32318;48.858;8.252;2022-12-07T10:24:43;100454.91;;;4.12;80.84
46598;BME280;32318;48.858;8.252;2022-12-07T10:32:43;100445.63;;;4.06;82.04
46598;BME280;32318;48.858;8.252;2022-12-07T10:40:43;100443.69;;;4.08;81.85
46598;BME280;32318;48.858;8.252;2022-12-07T10:49:05;100444.19;;;4.13;81.59
46598;BME280;32318;48.858;8.252;2022-12-07T10:57:34;100438.44;;;4.19;82.02
46598;BME280;32318;48.858;8.252;2022-12-07T11:06:01;100427.38;;;4.26;81.19
46598;BME280;32318;48.858;8.252;2022-12-07T11:39:37;100379.69;;;4.38;79.01
46598;BME280;32318;48.858;8.252;2022-12-07T11:47:47;100372.50;;;4.40;78.72
46598;BME280;32318;48.858;8.252;2022-12-07T11:56:12;100365.28;;;4.43;78.61
46598;BME280;32318;48.858;8.252;2022-12-07T12:04:42;100369.47;;;4.45;78.79
46598;BME280;32318;48.858;8.252;2022-12-07T12:13:16;100358.78;;;4.47;78.12
46598;BME280;32318;48.858;8.252;2022-12-07T12:21:26;100350.75;;;4.48;78.36
46598;BME280;32318;48.858;8.252;2022-12-07T12:29:41;100345.69;;;4.45;78.66
46598;BME280;32318;48.858;8.252;2022-12-07T12:37:43;100342.69;;;4.38;78.32
46598;BME280;32318;48.858;8.252;2022-12-07T12:45:43;100339.09;;;4.39;78.44
46598;BME280;32318;48.858;8.252;2022-12-07T12:53:50;100341.84;;;4.38;79.21
46598;BME280;32318;48.858;8.252;2022-12-07T13:02:05;100321.44;;;4.40;78.53
46598;BME280;32318;48.858;8.252;2022-12-07T13:34:36;100297.88;;;4.48;78.98
46598;BME280;32318;48.858;8.252;2022-12-07T13:42:37;100293.75;;;4.55;79.25
46598;BME280;32318;48.858;8.252;2022-12-07T13:50:37;100291.56;;;4.61;79.44
46598;BME280;32318;48.858;8.252;2022-12-07T13:58:37;100287.97;;;4.62;79.54
46598;BME280;32318;48.858;8.252;2022-12-07T14:06:47;100292.66;;;4.69;79.97
46598;BME280;32318;48.858;8.252;2022-12-07T14:14:48;100282.66;;;4.73;79.11
46598;BME280;32318;48.858;8.252;2022-12-07T14:22:55;100289.63;;;4.74;78.85
46598;BME280;32318;48.858;8.252;2022-12-07T14:30:55;100287.22;;;4.71;78.85
46598;BME280;32318;48.858;8.252;2022-12-07T14:38:55;100294.06;;;4.74;78.92
46598;BME280;32318;48.858;8.252;2022-12-07T14:46:58;100299.84;;;4.67;78.85
46598;BME280;32318;48.858;8.252;2022-12-07T14:54:58;100296.75;;;4.62;78.55
46598;BME280;32318;48.858;8.252;2022-12-07T15:02:58;100295.06;;;4.61;79.10
46598;BME280;32318;48.858;8.252;2022-12-07T15:10:59;100297.59;;;4.63;78.89
46598;BME280;32318;48.858;8.252;2022-12-07T15:18:59;100289.50;;;4.64;78.64
46598;BME280;32318;48.858;8.252;2022-12-07T15:27:00;100282.56;;;4.63;79.25
46598;BME280;32318;48.858;8.252;2022-12-07T15:35:00;100284.22;;;4.64;79.57
46598;BME280;32318;48.858;8.252;2022-12-07T15:43:01;100290.38;;;4.65;79.22
46598;BME280;32318;48.858;8.252;2022-12-07T15:51:06;100279.78;;;4.65;78.41
46598;BME280;32318;48.858;8.252;2022-12-07T15:59:07;100280.03;;;4.62;79.41
46598;BME280;32318;48.858;8.252;2022-12-07T16:07:07;100265.03;;;4.62;78.90
46598;BME280;32318;48.858;8.252;2022-12-07T16:15:08;100269.28;;;4.75;78.64
46598;BME280;32318;48.858;8.252;2022-12-07T16:23:09;100254.59;;;4.82;78.33
46598;BME280;32318;48.858;8.252;2022-12-07T16:31:14;100251.84;;;4.83;78.16
46598;BME280;32318;48.858;8.252;2022-12-07T16:39:15;100244.94;;;4.92;78.17
46598;BME280;32318;48.858;8.252;2022-12-07T16:47:16;100238.53;;;4.95;78.32
46598;BME280;32318;48.858;8.252;2022-12-07T16:55:16;100231.84;;;4.91;77.91
46598;BME280;32318;48.858;8.252;2022-12-07T17:03:16;100236.41;;;4.89;77.78
46598;BME280;32318;48.858;8.252;2022-12-07T17:11:22;100235.22;;;4.93;78.26
46598;BME280;32318;48.858;8.252;2022-12-07T17:19:23;100226.56;;;4.91;78.32
46598;BME280;32318;48.858;8.252;2022-12-07T17:27:23;100215.13;;;4.90;78.87
46598;BME280;32318;48.858;8.252;2022-12-07T17:35:24;100195.19;;;4.86;78.66
46598;BME280;32318;48.858;8.252;2022-12-07T17:43:24;100190.72;;;4.86;78.61
46598;BME280;32318;48.858;8.252;2022-12-07T17:51:24;100186.28;;;4.87;79.42
46598;BME280;32318;48.858;8.252;2022-12-07T17:59:43;100171.19;;;4.78;79.58
46598;BME280;32318;48.858;8.252;2022-12-07T18:07:44;100171.03;;;4.58;79.46
46598;BME280;32318;48.858;8.252;2022-12-07T18:15:44;100178.53;;;4.53;79.62
46598;BME280;32318;48.858;8.252;2022-12-07T18:23:49;100168.56;;;4.45;80.22
46598;BME280;32318;48.858;8.252;2022-12-07T18:31:50;100158.75;;;4.36;80.15
46598;BME280;32318;48.858;8.252;2022-12-07T18:39:50;100162.88;;;4.29;80.00
46598;BME280;32318;48.858;8.252;2022-12-07T18:47:50;100160.00;;;4.20;79.84
46598;BME280;32318;48.858;8.252;2022-12-07T18:56:00;100154.28;;;4.15;80.35
46598;BME280;32318;48.858;8.252;2022-12-07T19:04:00;100161.25;;;4.05;79.87
46598;BME280;32318;48.858;8.252;2022-12-07T19:12:01;100163.09;;;3.93;80.37
46598;BME280;32318;48.858;8.252;2022-12-07T19:20:06;100153.13;;;3.85;80.76
46598;BME280;32318;48.858;8.252;2022-12-07T19:28:07;100165.88;;;3.80;81.06
46598;BME280;32318;48.858;8.252;2022-12-07T19:36:08;100156.38;;;3.77;80.83
46598;BME280;32318;48.858;8.252;2022-12-07T19:52:12;100155.44;;;3.67;80.50
46598;BME280;32318;48.858;8.252;2022-12-07T20:00:13;100135.50;;;3.63;80.14
46598;BME280;32318;48.858;8.252;2022-12-07T20:08:14;100136.47;;;3.62;80.33
46598;BME280;32318;48.858;8.252;2022-12-07T20:16:14;100131.31;;;3.60;80.42
46598;BME280;32318;48.858;8.252;2022-12-07T20:24:17;100140.44;;;3.45;80.32
46598;BME280;32318;48.858;8.252;2022-12-07T20:32:18;100134.94;;;3.37;80.79
46598;BME280;32318;48.858;8.252;2022-12-07T20:40:18;100114.78;;;3.24;80.22
46598;BME280;32318;48.858;8.252;2022-12-07T20:48:19;100120.53;;;3.18;80.91
46598;BME280;32318;48.858;8.252;2022-12-07T20:56:28;100117.16;;;3.05;80.61
46598;BME280;32318;48.858;8.252;2022-12-07T21:04:28;100101.44;;;2.92;80.22
46598;BME280;32318;48.858;8.252;2022-12-07T21:12:29;100101.69;;;2.89;80.14
46598;BME280;32318;48.858;8.252;2022-12-07T21:20:29;100098.06;;;2.78;81.46
46598;BME280;32318;48.858;8.252;2022-12-07T21:28:30;100093.28;;;2.72;81.87
46598;BME280;32318;48.858;8.252;2022-12-07T21:36:30;100105.13;;;2.66;81.36
46598;BME280;32318;48.858;8.252;2022-12-07T21:44:31;100103.91;;;2.59;81.26
46598;BME280;32318;48.858;8.252;2022-12-07T21:52:31;100102.47;;;2.55;81.67
46598;BME280;32318;48.858;8.252;2022-12-07T22:00:32;100097.88;;;2.46;81.50
46598;BME280;32318;48.858;8.252;2022-12-07T22:08:32;100102.31;;;2.45;81.45
46598;BME280;32318;48.858;8.252;2022-12-07T22:16:32;100094.28;;;2.47;81.98
46598;BME280;32318;48.858;8.252;2022-12-07T22:24:33;100101.47;;;2.45;81.80
46598;BME280;32318;48.858;8.252;2022-12-07T22:32:34;100096.19;;;2.45;82.82
46598;BME280;32318;48.858;8.252;2022-12-07T22:40:34;100085.56;;;2.46;82.74
46598;BME280;32318;48.858;8.252;2022-12-07T22:48:38;100088.28;;;2.45;82.35
46598;BME280;32318;48.858;8.252;2022-12-07T22:56:39;100079.16;;;2.38;82.78
46598;BME280;32318;48.858;8.252;2022-12-07T23:04:39;100068.50;;;2.28;82.87
46598;BME280;32318;48.858;8.252;2022-12-07T23:12:40;100070.00;;;2.19;82.92
46598;BME280;32318;48.858;8.252;2022-12-07T23:20:58;100052.41;;;2.19;83.13
46598;BME280;32318;48.858;8.252;2022-12-07T23:28:58;100047.50;;;2.15;83.70
46598;BME280;32318;48.858;8.252;2022-12-07T23:36:59;100039.81;;;2.12;83.51
46598;BME280;32318;48.858;8.252;2022-12-07T23:44:59;100037.31;;;2.22;84.05
46598;BME280;32318;48.858;8.252;2022-12-07T23:52:59;100023.72;;;2.28;83.85
